Time;durP1;ratioP1;P1;durP2;ratioP2;P2;SDS_P1;SDS_P2;PMS_P1;PMS_P2;Temp;Humidity;BMP_temperature;BMP_pressure;BME280_temperature;BME280_humidity;BME280_pressure;Samples;Min_cycle;Max_cycle;Signal;HPM_P1;HPM_P2
2023/12/10 00:00:19;;;;;;;25.13;5.32;;;;;;;9.61;75.19;99430.03;4096471;28;20047;-66
2023/12/10 00:02:22;;;;;;;25.20;6.97;;;;;;;9.63;74.54;99441.25;4111388;28;20227;-67
2023/12/10 00:04:24;;;;;;;24.70;9.07;;;;;;;9.68;74.27;99439.53;4097115;28;20514;-67
2023/12/10 00:06:33;;;;;;;28.80;8.68;;;;;;;9.71;74.47;99443.84;4111063;28;20067;-66
2023/12/10 00:08:35;;;;;;;29.05;7.00;;;;;;;9.74;73.93;99454.25;4108872;28;20493;-66
2023/12/10 00:10:38;;;;;;;32.00;7.53;;;;;;;9.72;73.96;99456.81;4109049;28;20051;-66
2023/12/10 00:12:41;;;;;;;25.65;5.82;;;;;;;9.72;73.91;99441.25;4112030;28;20085;-68
2023/12/10 00:14:49;;;;;;;25.55;6.82;;;;;;;9.72;73.94;99454.22;4113386;28;20291;-66
2023/12/10 00:16:52;;;;;;;31.80;9.40;;;;;;;9.70;73.72;99463.75;4112483;28;20101;-66
2023/12/10 00:18:55;;;;;;;24.35;7.13;;;;;;;9.69;74.30;99467.22;4111100;28;20465;-66
2023/12/10 00:20:58;;;;;;;54.83;20.63;;;;;;;9.72;74.29;99472.41;4109449;28;20042;-67
2023/12/10 00:23:03;;;;;;;24.25;7.18;;;;;;;9.70;74.83;99474.16;4111860;28;20445;-67
2023/12/10 00:25:07;;;;;;;28.45;5.15;;;;;;;9.71;73.83;99485.38;4111949;28;20093;-67
2023/12/10 00:27:10;;;;;;;28.77;6.20;;;;;;;9.71;74.21;99485.38;4114502;28;20034;-66
2023/12/10 00:29:13;;;;;;;24.25;5.18;;;;;;;9.72;73.50;99485.38;4095481;28;20491;-67
2023/12/10 00:31:16;;;;;;;24.95;5.53;;;;;;;9.75;74.30;99487.13;4115155;28;20498;-67
2023/12/10 00:33:19;;;;;;;32.90;6.13;;;;;;;9.73;74.36;99494.91;4105826;28;20074;-67
2023/12/10 00:35:23;;;;;;;30.65;5.97;;;;;;;9.73;74.38;99500.09;4094448;28;20075;-66
2023/12/10 00:37:25;;;;;;;27.85;6.38;;;;;;;9.68;73.12;99488.84;4116802;28;20182;-66
2023/12/10 00:39:30;;;;;;;33.92;7.88;;;;;;;9.76;72.79;99501.84;4110847;28;20062;-66
2023/12/10 00:41:33;;;;;;;28.58;5.68;;;;;;;9.81;72.84;99507.88;4111580;28;20133;-65
2023/12/10 00:43:36;;;;;;;24.80;5.18;;;;;;;9.82;73.58;99507.03;4110226;28;20409;-66
2023/12/10 00:45:39;;;;;;;30.13;5.60;;;;;;;9.79;72.99;99510.47;4111368;28;20057;-65
2023/12/10 00:47:42;;;;;;;23.20;5.25;;;;;;;9.95;71.48;99505.34;4096684;28;20520;-66
2023/12/10 00:49:45;;;;;;;24.83;6.07;;;;;;;9.90;72.34;99513.13;4113472;28;20070;-66
2023/12/10 00:51:48;;;;;;;23.98;5.38;;;;;;;9.86;71.96;99515.72;4113790;28;20062;-66
2023/12/10 00:53:51;;;;;;;32.00;6.85;;;;;;;9.88;71.79;99508.78;4112125;28;20035;-66
2023/12/10 00:55:55;;;;;;;31.77;5.88;;;;;;;9.90;71.14;99520.03;4115077;28;20047;-66
2023/12/10 00:57:58;;;;;;;24.90;5.50;;;;;;;9.89;71.57;99518.31;4109402;28;20065;-66
2023/12/10 01:00:02;;;;;;;28.92;6.93;;;;;;;9.94;70.55;99529.56;4112239;28;20397;-66
2023/12/10 01:02:05;;;;;;;21.88;6.43;;;;;;;9.92;70.46;99533.88;4111968;28;20035;-66
2023/12/10 01:04:08;;;;;;;36.38;6.75;;;;;;;9.92;70.27;99528.69;4112806;28;20294;-66
2023/12/10 01:06:11;;;;;;;30.67;7.53;;;;;;;9.96;69.69;99539.09;4114142;28;20035;-66
2023/12/10 01:08:16;;;;;;;32.47;7.05;;;;;;;9.86;70.27;99526.94;4112018;28;20054;-66
2023/12/10 01:10:19;;;;;;;31.13;6.85;;;;;;;9.91;69.78;99535.59;4112322;28;20050;-66
2023/12/10 01:12:24;;;;;;;31.35;7.15;;;;;;;9.92;69.75;99544.28;4108546;28;20035;-66
2023/12/10 01:14:27;;;;;;;29.50;5.50;;;;;;;9.92;69.78;99549.47;4107764;28;20039;-66
2023/12/10 01:16:30;;;;;;;34.17;6.70;;;;;;;9.94;69.61;99545.13;4093883;28;20055;-66
2023/12/10 01:18:34;;;;;;;28.20;6.38;;;;;;;9.96;69.71;99546.03;4112342;28;20563;-66
2023/12/10 01:20:37;;;;;;;24.25;5.45;;;;;;;9.95;69.84;99554.66;4108297;28;20089;-66
2023/12/10 01:22:40;;;;;;;31.88;7.38;;;;;;;9.98;69.09;99564.19;4108729;28;20113;-66
2023/12/10 01:24:45;;;;;;;25.45;6.18;;;;;;;9.95;68.94;99567.66;4109507;28;20125;-66
2023/12/10 01:26:48;;;;;;;32.30;7.63;;;;;;;9.96;69.04;99571.97;4109793;28;20472;-66
2023/12/10 01:28:53;;;;;;;33.75;6.82;;;;;;;9.97;69.06;99591.88;4108901;28;20030;-65
2023/12/10 01:30:56;;;;;;;31.13;6.10;;;;;;;9.96;69.28;99591.00;4107977;28;20130;-65
2023/12/10 01:33:00;;;;;;;27.50;6.30;;;;;;;9.96;69.34;99590.16;4107539;28;20130;-66
2023/12/10 01:35:04;;;;;;;31.25;7.22;;;;;;;9.93;69.47;99595.34;4109465;28;20057;-66
2023/12/10 01:37:07;;;;;;;25.50;6.43;;;;;;;9.98;69.16;99606.59;4111540;28;20047;-66
2023/12/10 01:39:10;;;;;;;21.92;5.03;;;;;;;9.96;69.23;99605.75;4094039;28;20039;-65
2023/12/10 01:41:13;;;;;;;22.63;6.22;;;;;;;10.04;68.27;99604.00;4110606;28;20137;-65
2023/12/10 01:43:17;;;;;;;23.20;6.10;;;;;;;10.05;67.57;99607.50;4115291;28;20043;-65
2023/12/10 01:45:22;;;;;;;27.42;6.63;;;;;;;9.99;68.47;99613.53;4113013;28;20526;-66
2023/12/10 01:47:24;;;;;;;22.00;5.22;;;;;;;9.98;69.05;99619.56;4111777;28;21336;-66
2023/12/10 01:49:28;;;;;;;24.35;5.97;;;;;;;9.97;68.30;99623.03;4112001;28;20062;-66
2023/12/10 01:51:31;;;;;;;;;;;;;;;9.97;68.35;99620.44;4103919;28;20576;-66
2023/12/10 01:53:35;;;;;;;28.25;6.85;;;;;;;9.93;68.35;99616.97;4081655;29;19969;-66
2023/12/10 01:55:37;;;;;;;24.85;7.78;;;;;;;9.97;68.17;99625.63;4112917;28;20042;-66
2023/12/10 01:57:41;;;;;;;28.33;5.85;;;;;;;9.92;68.62;99632.53;4113074;28;20157;-66
2023/12/10 01:59:44;;;;;;;31.30;6.80;;;;;;;9.88;68.95;99629.06;4090333;28;20467;-66
2023/12/10 02:01:49;;;;;;;31.17;7.07;;;;;;;9.94;67.82;99629.09;4107656;28;20043;-66
2023/12/10 02:03:52;;;;;;;23.58;5.55;;;;;;;10.01;67.72;99634.31;4109568;28;20031;-66
2023/12/10 02:05:56;;;;;;;25.10;5.97;;;;;;;9.99;67.79;99634.31;4112483;28;20042;-66
2023/12/10 02:08:02;;;;;;;19.80;5.03;;;;;;;10.01;67.36;99632.56;4114087;28;20038;-66
2023/12/10 02:10:06;;;;;;;18.73;4.55;;;;;;;9.95;67.89;99646.38;4115117;28;20066;-65
2023/12/10 02:12:11;;;;;;;25.08;5.93;;;;;;;9.94;67.79;99655.06;4117251;28;20062;-66
2023/12/10 02:14:13;;;;;;;21.05;5.20;;;;;;;9.98;67.07;99681.91;4097419;28;20031;-66
2023/12/10 02:16:16;;;;;;;26.02;6.72;;;;;;;9.98;68.15;99705.25;4122411;28;20058;-66
2023/12/10 02:18:21;;;;;;;21.17;5.00;;;;;;;9.95;69.29;99718.22;4120304;28;20042;-66
2023/12/10 02:20:24;;;;;;;20.60;4.53;;;;;;;9.72;70.50;99731.09;4121295;28;20038;-66
2023/12/10 02:22:28;;;;;;;16.85;4.38;;;;;;;9.44;71.66;99747.34;4110249;28;20137;-66
2023/12/10 02:24:37;;;;;;;22.27;5.07;;;;;;;9.33;73.44;99725.66;4093715;28;20049;-66
2023/12/10 02:26:41;;;;;;;17.30;3.80;;;;;;;9.17;73.62;99722.06;4109421;28;20043;-66
2023/12/10 02:28:44;;;;;;;12.73;2.78;;;;;;;9.01;74.17;99740.94;4114785;28;20035;-66
2023/12/10 02:30:47;;;;;;;13.65;3.85;;;;;;;8.92;74.89;99739.13;4109119;28;20038;-66
2023/12/10 02:32:51;;;;;;;16.67;3.45;;;;;;;8.89;74.92;99741.69;4112042;28;20449;-66
2023/12/10 02:34:54;;;;;;;17.10;3.38;;;;;;;8.85;75.10;99734.75;4107311;28;20049;-66
2023/12/10 02:36:57;;;;;;;11.20;2.88;;;;;;;8.78;74.79;99738.16;4111761;28;20042;-66
2023/12/10 02:39:00;;;;;;;11.63;2.63;;;;;;;8.79;75.55;99747.66;4114079;28;20054;-66
2023/12/10 02:41:03;;;;;;;15.27;3.00;;;;;;;8.73;75.86;99751.03;4095070;28;20134;-66
2023/12/10 02:43:08;;;;;;;12.15;3.10;;;;;;;8.69;75.92;99744.97;4112297;28;20117;-66
2023/12/10 02:45:12;;;;;;;20.27;3.95;;;;;;;8.68;75.68;99766.53;4112056;28;20039;-66
2023/12/10 02:47:15;;;;;;;17.33;3.78;;;;;;;8.69;75.47;99770.88;4108036;28;20118;-66
2023/12/10 02:49:18;;;;;;;8.68;2.67;;;;;;;8.67;75.76;99775.19;4111406;28;20105;-66
2023/12/10 02:51:21;;;;;;;13.60;3.33;;;;;;;8.62;75.12;99766.47;4112331;28;20031;-66
2023/12/10 02:53:24;;;;;;;16.25;4.25;;;;;;;8.58;75.33;99762.13;4110064;28;20038;-66
2023/12/10 02:55:27;;;;;;;11.43;2.92;;;;;;;8.62;75.08;99768.22;4109671;28;20034;-66
2023/12/10 02:57:30;;;;;;;13.80;2.90;;;;;;;8.54;75.13;99775.88;4110577;28;20046;-66
2023/12/10 02:59:35;;;;;;;14.70;2.60;;;;;;;8.54;74.80;99781.94;4112295;28;20282;-66
2023/12/10 03:01:38;;;;;;;10.05;2.47;;;;;;;8.52;74.81;99775.88;4107416;28;20070;-67
2023/12/10 03:03:41;;;;;;;12.88;3.13;;;;;;;8.48;75.00;99760.28;4110732;28;20105;-66
2023/12/10 03:05:43;;;;;;;13.40;3.90;;;;;;;8.44;74.75;99767.16;4110958;28;20050;-66
2023/12/10 03:07:46;;;;;;;17.42;3.40;;;;;;;8.43;74.73;99782.66;4108465;28;20050;-66
2023/12/10 03:09:48;;;;;;;16.10;3.22;;;;;;;8.42;74.77;99784.34;4107229;28;20120;-67
2023/12/10 03:11:51;;;;;;;18.05;3.90;;;;;;;8.43;74.91;99795.59;4107750;28;20057;-67
2023/12/10 03:13:54;;;;;;;11.80;3.35;;;;;;;8.43;75.43;99803.38;4105632;28;20102;-67
2023/12/10 03:15:59;;;;;;;11.82;3.40;;;;;;;8.47;74.97;99807.75;4112664;28;20049;-67
2023/12/10 03:18:02;;;;;;;15.05;4.85;;;;;;;8.54;74.82;99836.34;4109548;28;20462;-67
2023/12/10 03:20:25;;;;;;;18.58;3.05;;;;;;;8.60;75.71;99824.31;4108431;28;20038;-67
2023/12/10 03:22:29;;;;;;;14.75;3.28;;;;;;;8.60;75.79;99840.75;4094106;28;20047;-67
2023/12/10 03:24:31;;;;;;;18.27;3.80;;;;;;;8.61;75.54;99868.38;4109498;28;20409;-67
2023/12/10 03:26:34;;;;;;;12.90;3.50;;;;;;;8.60;76.09;99852.81;4111807;28;20054;-68
2023/12/10 03:28:37;;;;;;;16.42;3.47;;;;;;;8.59;76.47;99826.03;4110313;28;20174;-68
2023/12/10 03:30:40;;;;;;;15.05;2.85;;;;;;;8.52;76.49;99819.91;4107271;28;20030;-68
2023/12/10 03:32:47;;;;;;;11.70;2.63;;;;;;;8.45;76.50;99830.19;4107048;28;20098;-68
2023/12/10 03:34:49;;;;;;;12.52;2.78;;;;;;;8.44;75.32;99820.63;4109050;28;20077;-68
2023/12/10 03:36:52;;;;;;;9.80;1.73;;;;;;;8.29;75.06;99829.06;4111459;28;20031;-67
2023/12/10 03:38:55;;;;;;;12.88;2.83;;;;;;;8.29;75.80;99821.31;4110602;28;20057;-66
2023/12/10 03:40:58;;;;;;;11.73;3.38;;;;;;;8.31;76.00;99825.66;4108793;28;20488;-67
2023/12/10 03:43:01;;;;;;;15.18;2.83;;;;;;;8.28;76.40;99845.47;4094025;28;20110;-66
2023/12/10 03:45:05;;;;;;;10.30;2.63;;;;;;;8.26;76.69;99848.03;4113393;28;20547;-66
2023/12/10 03:47:08;;;;;;;9.55;2.42;;;;;;;8.29;77.00;99854.97;4106705;28;20039;-66
2023/12/10 03:49:13;;;;;;;12.98;3.00;;;;;;;8.36;77.29;99849.88;4108095;28;20082;-66
2023/12/10 03:51:16;;;;;;;15.70;3.95;;;;;;;8.44;77.15;99852.63;4107853;28;20042;-66
2023/12/10 03:53:19;;;;;;;20.40;3.90;;;;;;;8.52;76.96;99865.69;4090797;28;20074;-66
2023/12/10 03:55:22;;;;;;;14.60;3.08;;;;;;;8.41;77.40;99872.41;4112183;28;20047;-66
2023/12/10 03:57:24;;;;;;;18.58;3.10;;;;;;;8.42;77.80;99874.16;4109302;28;20105;-66
2023/12/10 03:59:27;;;;;;;17.13;3.85;;;;;;;8.53;77.61;99873.47;4107609;28;20034;-66
2023/12/10 04:01:30;;;;;;;18.98;4.90;;;;;;;8.49;78.33;99876.00;4103489;28;20038;-66
2023/12/10 04:03:34;;;;;;;24.50;4.78;;;;;;;8.48;78.42;99882.03;4108092;28;20070;-67
2023/12/10 04:05:38;;;;;;;20.02;4.57;;;;;;;8.42;78.86;99895.72;4110268;28;20314;-67
2023/12/10 04:07:42;;;;;;;28.05;6.20;;;;;;;8.33;79.01;99900.78;4102218;28;20133;-67
2023/12/10 04:09:45;;;;;;;24.05;7.00;;;;;;;8.43;78.90;99879.34;4089740;28;20046;-67
2023/12/10 04:11:48;;;;;;;21.58;4.40;;;;;;;8.45;78.51;99898.38;4107651;28;20049;-67
2023/12/10 04:13:50;;;;;;;17.27;4.43;;;;;;;8.52;78.40;99887.25;4107077;28;20039;-67
2023/12/10 04:15:53;;;;;;;22.30;4.70;;;;;;;8.45;77.93;99897.53;4110450;28;20113;-67
2023/12/10 04:17:56;;;;;;;21.90;4.07;;;;;;;8.41;78.54;99891.41;4108167;28;20514;-67
2023/12/10 04:20:49;;;;;;;22.38;3.95;;;;;;;8.43;78.76;99902.66;4102741;28;20054;-67
2023/12/10 04:22:53;;;;;;;21.23;3.63;;;;;;;8.45;79.34;99903.56;4112293;28;20043;-66
2023/12/10 04:25:01;;;;;;;20.05;4.68;;;;;;;8.46;79.20;99899.28;4095619;28;20043;-66
2023/12/10 04:27:04;;;;;;;21.13;5.20;;;;;;;8.47;79.00;99901.00;4115122;28;20124;-67
2023/12/10 04:29:07;;;;;;;24.05;6.70;;;;;;;8.30;79.19;99905.94;4091379;28;20035;-66
2023/12/10 04:31:10;;;;;;;18.83;5.72;;;;;;;8.37;79.34;99913.81;4110635;28;20485;-66
2023/12/10 04:33:14;;;;;;;23.38;5.85;;;;;;;8.46;79.37;99918.28;4113392;28;20050;-67
2023/12/10 04:35:19;;;;;;;34.80;6.35;;;;;;;8.37;79.18;99916.38;4113445;28;20034;-66
2023/12/10 04:37:22;;;;;;;20.20;6.90;;;;;;;8.39;79.32;99917.28;4109552;28;20494;-66
2023/12/10 04:39:26;;;;;;;27.98;6.47;;;;;;;8.44;78.90;99924.25;4115021;28;20086;-65
2023/12/10 04:41:29;;;;;;;26.10;5.20;;;;;;;8.46;78.48;99918.28;4112980;28;20412;-66
2023/12/10 04:43:32;;;;;;;26.80;5.72;;;;;;;8.51;78.01;99921.81;4110180;28;20046;-66
2023/12/10 04:45:35;;;;;;;28.48;6.72;;;;;;;8.55;77.23;99910.63;4113399;28;20031;-66
2023/12/10 04:47:37;;;;;;;26.13;5.60;;;;;;;8.47;77.40;99912.25;4112470;28;20546;-66
2023/12/10 04:49:41;;;;;;;31.83;6.32;;;;;;;8.51;76.98;99903.69;4111568;28;20406;-66
2023/12/10 04:51:44;;;;;;;18.95;5.18;;;;;;;8.48;76.82;99893.25;4112150;28;20043;-67
2023/12/10 04:53:47;;;;;;;22.33;5.53;;;;;;;8.53;77.16;99904.56;4110159;28;20093;-66
2023/12/10 04:55:51;;;;;;;28.88;5.55;;;;;;;8.48;75.76;99898.44;4111672;28;20395;-66
2023/12/10 04:57:54;;;;;;;24.60;4.82;;;;;;;8.44;75.10;99913.88;4109825;28;20073;-66
2023/12/10 04:59:57;;;;;;;28.05;6.60;;;;;;;8.58;75.09;99911.53;4098833;28;20038;-65
2023/12/10 05:02:00;;;;;;;26.35;5.47;;;;;;;8.59;73.97;99921.91;4111444;28;20769;-66
2023/12/10 05:04:03;;;;;;;26.08;5.00;;;;;;;8.64;73.01;99907.28;4111594;28;20125;-65
2023/12/10 05:06:07;;;;;;;28.08;5.35;;;;;;;8.66;72.39;99918.56;4115780;28;20045;-65
2023/12/10 05:08:11;;;;;;;24.35;5.43;;;;;;;8.64;73.34;99925.41;4115036;28;20030;-66
2023/12/10 05:10:13;;;;;;;19.40;5.22;;;;;;;8.67;73.21;99914.22;4115342;28;20038;-66
2023/12/10 05:12:17;;;;;;;26.15;5.60;;;;;;;8.63;72.79;99921.09;4115653;28;20030;-65
2023/12/10 05:14:19;;;;;;;18.85;4.38;;;;;;;8.66;72.07;99923.72;4110438;28;20043;-65
2023/12/10 05:16:22;;;;;;;28.35;5.60;;;;;;;8.67;72.46;99917.72;4111374;28;20093;-65
2023/12/10 05:18:25;;;;;;;22.85;5.72;;;;;;;8.73;71.64;99928.16;4110476;28;20047;-66
2023/12/10 05:20:27;;;;;;;28.73;5.78;;;;;;;8.71;71.18;99928.97;4108626;28;20031;-66
2023/12/10 05:22:30;;;;;;;24.80;5.95;;;;;;;8.70;71.54;99948.84;4108704;28;20034;-66
2023/12/10 05:24:34;;;;;;;22.27;4.82;;;;;;;8.74;71.71;99944.56;4111777;28;20061;-65
2023/12/10 05:26:38;;;;;;;25.63;5.65;;;;;;;8.75;71.51;99951.50;4112444;28;20058;-65
2023/12/10 05:28:43;;;;;;;30.42;5.68;;;;;;;8.67;71.44;99961.75;4111441;28;20039;-66
2023/12/10 05:30:46;;;;;;;30.90;5.57;;;;;;;8.80;71.02;99959.31;4113944;28;20152;-66
2023/12/10 05:32:48;;;;;;;24.67;5.15;;;;;;;8.77;71.06;99973.09;4111792;28;20064;-66
2023/12/10 05:34:51;;;;;;;20.75;4.20;;;;;;;8.74;71.13;99978.25;4098264;28;20051;-66
2023/12/10 05:36:54;;;;;;;25.02;4.68;;;;;;;8.72;70.81;99982.56;4123593;28;20058;-66
2023/12/10 05:38:57;;;;;;;20.70;4.43;;;;;;;8.76;71.00;99993.81;4123310;28;20456;-66
2023/12/10 05:41:00;;;;;;;22.83;4.25;;;;;;;8.77;71.32;99990.38;4114843;28;20089;-66
2023/12/10 05:43:03;;;;;;;20.15;4.22;;;;;;;8.80;69.92;99986.09;4116351;28;20066;-66
2023/12/10 05:45:09;;;;;;;25.23;4.57;;;;;;;8.85;69.99;99999.16;4098936;28;20069;-66
2023/12/10 05:47:11;;;;;;;23.40;6.32;;;;;;;8.89;70.16;100004.38;4101273;28;20106;-66
2023/12/10 05:49:14;;;;;;;20.92;4.78;;;;;;;8.98;69.79;100006.25;4118540;28;20086;-67
2023/12/10 05:51:17;;;;;;;19.63;4.63;;;;;;;8.99;69.79;100015.72;4112174;28;20035;-66
2023/12/10 05:53:19;;;;;;;22.13;4.05;;;;;;;8.98;69.30;100021.78;4113158;28;20034;-67
2023/12/10 05:55:22;;;;;;;22.25;4.43;;;;;;;9.00;69.83;100020.06;4115563;28;20039;-66
2023/12/10 05:57:26;;;;;;;20.40;4.32;;;;;;;9.00;69.37;100030.44;4113759;28;20042;-66
2023/12/10 05:59:29;;;;;;;19.98;4.00;;;;;;;9.11;68.54;100028.00;4114980;28;20046;-66
2023/12/10 06:01:34;;;;;;;19.92;4.68;;;;;;;9.12;68.26;100031.47;4110560;28;20035;-66
2023/12/10 06:03:37;;;;;;;23.95;5.78;;;;;;;9.08;68.03;100033.13;4121242;28;20122;-66
2023/12/10 06:05:40;;;;;;;18.30;4.32;;;;;;;9.10;67.93;100036.63;4114388;28;20079;-65
2023/12/10 06:07:43;;;;;;;23.05;4.70;;;;;;;9.14;67.88;100042.72;4120496;28;20104;-65
2023/12/10 06:09:45;;;;;;;15.82;4.50;;;;;;;9.13;68.66;100053.97;4110020;28;20125;-66
2023/12/10 06:11:48;;;;;;;25.05;4.47;;;;;;;9.16;68.60;100052.28;4102900;28;20069;-65
2023/12/10 06:13:51;;;;;;;21.52;4.65;;;;;;;9.28;68.50;100056.75;4114085;28;20042;-66
2023/12/10 06:15:56;;;;;;;25.73;4.10;;;;;;;9.25;67.58;100051.53;4114840;28;20039;-66
2023/12/10 06:18:00;;;;;;;24.25;4.35;;;;;;;9.21;67.97;100068.78;4118709;28;20038;-66
2023/12/10 06:20:04;;;;;;;22.33;4.47;;;;;;;9.28;68.20;100058.47;4115260;28;20066;-66
2023/12/10 06:22:07;;;;;;;16.42;3.97;;;;;;;9.23;68.27;100071.41;4117552;28;20397;-66
2023/12/10 06:24:10;;;;;;;19.67;4.95;;;;;;;9.26;68.77;100071.44;4115364;28;20042;-66
2023/12/10 06:26:14;;;;;;;23.80;4.45;;;;;;;9.24;68.02;100067.94;4109851;28;20030;-66
2023/12/10 06:28:17;;;;;;;15.90;4.00;;;;;;;9.26;67.92;100081.81;4115211;28;20045;-66
2023/12/10 06:30:20;;;;;;;15.13;4.07;;;;;;;9.31;67.16;100077.53;4113274;28;20493;-66
2023/12/10 06:32:23;;;;;;;19.52;4.60;;;;;;;9.25;67.18;100074.88;4112683;28;20497;-66
2023/12/10 06:34:27;;;;;;;24.73;5.10;;;;;;;9.20;67.00;100079.09;4110758;28;20129;-66
2023/12/10 06:36:30;;;;;;;19.83;4.30;;;;;;;9.29;67.67;100089.63;4110806;28;20046;-66
2023/12/10 06:38:34;;;;;;;19.63;4.07;;;;;;;9.26;66.69;100094.78;4109484;28;20114;-66
2023/12/10 06:40:37;;;;;;;16.77;3.60;;;;;;;9.32;66.63;100091.41;4109706;28;20398;-66
2023/12/10 06:42:40;;;;;;;30.08;5.55;;;;;;;9.35;66.78;100081.91;4075295;29;20040;-66
2023/12/10 06:44:42;;;;;;;16.58;4.43;;;;;;;9.31;66.70;100093.09;4119280;28;20050;-66
2023/12/10 06:46:45;;;;;;;18.63;4.15;;;;;;;9.33;66.07;100090.53;4098202;29;20050;-66
2023/12/10 06:48:48;;;;;;;21.88;4.75;;;;;;;9.32;65.60;100087.06;4115032;28;20077;-66
2023/12/10 06:50:54;;;;;;;21.00;4.47;;;;;;;9.36;66.35;100091.44;4115610;28;20445;-66
2023/12/10 06:52:57;;;;;;;19.08;4.40;;;;;;;9.32;65.94;100099.19;4115060;28;20110;-66
2023/12/10 06:55:00;;;;;;;19.23;4.55;;;;;;;9.35;67.05;100101.81;4115239;28;20049;-66
2023/12/10 06:57:03;;;;;;;24.60;5.70;;;;;;;9.33;66.41;100106.97;4101331;28;20046;-66
2023/12/10 06:59:07;;;;;;;18.73;4.70;;;;;;;9.32;66.18;100105.22;4098706;28;20043;-66
2023/12/10 07:01:10;;;;;;;25.00;4.80;;;;;;;9.31;66.04;100095.69;4112042;28;20093;-67
2023/12/10 07:03:13;;;;;;;19.55;4.55;;;;;;;9.33;66.50;100101.78;4114966;28;20098;-67
2023/12/10 07:05:17;;;;;;;22.90;5.03;;;;;;;9.28;66.24;100107.75;4115031;28;20250;-67
2023/12/10 07:07:21;;;;;;;20.17;4.00;;;;;;;9.27;66.58;100106.88;4097705;29;20094;-67
2023/12/10 07:09:24;;;;;;;21.98;3.95;;;;;;;9.27;66.40;100112.06;4097718;29;20047;-67
2023/12/10 07:11:27;;;;;;;22.65;4.00;;;;;;;9.25;66.10;100108.59;4080914;28;20071;-66
2023/12/10 07:13:30;;;;;;;20.10;4.00;;;;;;;9.22;66.13;100106.81;4106725;28;20045;-67
2023/12/10 07:15:32;;;;;;;16.00;4.32;;;;;;;9.18;66.13;100118.00;4105284;28;20062;-66
2023/12/10 07:17:36;;;;;;;24.10;4.00;;;;;;;9.16;65.98;100113.66;4111819;28;20049;-66
2023/12/10 07:19:39;;;;;;;16.50;3.95;;;;;;;9.21;65.67;100119.75;4090771;28;20050;-66
2023/12/10 07:21:42;;;;;;;17.48;3.60;;;;;;;9.27;66.27;100132.81;4114475;28;20142;-67
2023/12/10 07:23:47;;;;;;;16.95;4.13;;;;;;;9.31;66.40;100138.94;4111727;28;20049;-66
2023/12/10 07:25:49;;;;;;;17.77;4.15;;;;;;;9.27;65.89;100138.00;4113752;28;20607;-67
2023/12/10 07:27:53;;;;;;;17.60;4.25;;;;;;;9.28;65.82;100141.50;4111545;28;20034;-67
2023/12/10 07:29:56;;;;;;;16.08;3.88;;;;;;;9.38;66.40;100145.94;4112993;28;20405;-66
2023/12/10 07:31:59;;;;;;;20.13;4.35;;;;;;;9.33;66.01;100145.91;4113558;28;20035;-66
2023/12/10 07:34:02;;;;;;;18.00;4.38;;;;;;;9.41;66.40;100151.19;4095616;28;20039;-66
2023/12/10 07:36:06;;;;;;;18.17;4.38;;;;;;;9.37;65.97;100145.06;4097694;28;20051;-66
2023/12/10 07:38:09;;;;;;;13.40;2.92;;;;;;;9.39;65.46;100158.94;4114459;28;20043;-66
2023/12/10 07:40:13;;;;;;;18.75;4.28;;;;;;;9.40;65.80;100154.63;4102177;28;20138;-67
2023/12/10 07:42:16;;;;;;;;;;;;;;;9.39;66.12;100158.94;4081248;29;20564;-67
2023/12/10 07:44:19;;;;;;;15.57;3.35;;;;;;;9.32;66.34;100164.91;4106699;28;19922;-66
2023/12/10 07:46:22;;;;;;;16.65;3.65;;;;;;;9.32;65.30;100162.28;4108133;28;20042;-66
2023/12/10 07:48:27;;;;;;;19.58;4.32;;;;;;;9.29;65.49;100162.25;4108736;28;20038;-66
2023/12/10 07:50:30;;;;;;;13.55;3.30;;;;;;;9.31;65.93;100162.28;4102871;28;20070;-66
2023/12/10 07:52:33;;;;;;;14.15;3.85;;;;;;;9.30;66.16;100160.53;4113956;28;20094;-66
2023/12/10 07:54:37;;;;;;;18.95;3.55;;;;;;;9.33;65.66;100166.66;4104144;28;20075;-66
2023/12/10 07:56:41;;;;;;;23.60;5.07;;;;;;;9.29;65.08;100164.84;4106226;28;20042;-66
2023/12/10 07:58:44;;;;;;;18.05;3.92;;;;;;;9.33;65.32;100168.34;4111824;28;20049;-66
2023/12/10 08:00:47;;;;;;;18.00;3.65;;;;;;;9.31;64.91;100164.88;4113548;28;20066;-66
2023/12/10 08:02:50;;;;;;;16.23;4.05;;;;;;;9.27;65.11;100163.94;4090369;28;20035;-66
2023/12/10 08:04:53;;;;;;;15.15;3.20;;;;;;;9.34;65.78;100167.50;4108712;28;20058;-65
2023/12/10 08:06:56;;;;;;;15.32;3.47;;;;;;;9.37;64.86;100180.53;4108207;28;20057;-65
2023/12/10 08:08:59;;;;;;;23.33;5.38;;;;;;;9.33;65.21;100166.66;4114522;28;20046;-65
2023/12/10 08:11:03;;;;;;;17.38;5.10;;;;;;;9.35;65.40;100166.66;4108777;28;20034;-65
2023/12/10 08:13:08;;;;;;;20.90;4.70;;;;;;;9.28;65.32;100170.88;4110608;28;20179;-65
2023/12/10 08:15:11;;;;;;;;;;;;;;;9.32;65.51;100161.44;4114746;28;20426;-66
2023/12/10 08:17:14;;;;;;;21.98;4.38;;;;;;;9.32;65.06;100171.81;4109608;28;19929;-66
2023/12/10 08:19:17;;;;;;;20.48;3.95;;;;;;;9.37;65.61;100173.59;4111760;28;20042;-66
2023/12/10 08:21:20;;;;;;;20.23;3.75;;;;;;;9.44;65.13;100172.84;4109695;28;20046;-66
2023/12/10 08:23:23;;;;;;;16.92;3.53;;;;;;;9.44;65.25;100171.97;4110211;28;20039;-66
2023/12/10 08:25:27;;;;;;;16.85;3.95;;;;;;;9.53;64.83;100177.28;4108970;28;20039;-66
2023/12/10 08:27:33;;;;;;;16.80;4.32;;;;;;;9.56;64.75;100176.47;4116688;28;20054;-67
2023/12/10 08:29:38;;;;;;;13.90;3.38;;;;;;;9.61;64.78;100185.19;4109502;28;20036;-66
2023/12/10 08:31:41;;;;;;;21.35;4.65;;;;;;;9.52;64.62;100190.25;4111981;28;20048;-66
2023/12/10 08:33:46;;;;;;;17.65;4.53;;;;;;;9.51;64.97;100185.91;4113469;28;20077;-64
2023/12/10 08:35:50;;;;;;;19.35;5.45;;;;;;;9.53;65.12;100192.84;4095473;28;20043;-64
2023/12/10 08:37:53;;;;;;;18.20;3.78;;;;;;;9.47;65.12;100197.09;4096773;28;20379;-64
2023/12/10 08:39:55;;;;;;;20.85;3.58;;;;;;;9.54;64.73;100199.78;4112775;28;20557;-64
2023/12/10 08:41:58;;;;;;;15.98;4.75;;;;;;;9.64;65.72;100199.91;4111257;28;20121;-64
2023/12/10 08:44:00;;;;;;;16.48;3.38;;;;;;;9.68;64.65;100205.19;4113552;28;20457;-64
2023/12/10 08:46:05;;;;;;;20.75;4.80;;;;;;;9.63;64.48;100206.84;4093903;28;20042;-69
2023/12/10 08:48:08;;;;;;;13.13;3.50;;;;;;;9.75;65.50;100213.91;4091858;28;20111;-70
2023/12/10 08:50:13;;;;;;;16.20;3.10;;;;;;;9.71;65.09;100206.94;4116407;28;20046;-68
2023/12/10 08:52:15;;;;;;;27.27;4.32;;;;;;;9.72;65.16;100213.88;4110171;28;20049;-71
2023/12/10 08:54:18;;;;;;;19.98;4.05;;;;;;;9.83;65.05;100220.09;4095834;28;20047;-69
2023/12/10 08:56:25;;;;;;;19.70;3.92;;;;;;;9.75;64.58;100214.81;4111707;28;20046;-70
2023/12/10 08:58:29;;;;;;;14.45;3.67;;;;;;;9.81;64.07;100220.91;4113160;28;20050;-69
2023/12/10 09:00:32;;;;;;;22.50;4.32;;;;;;;9.84;64.03;100214.06;4108595;28;20046;-68
2023/12/10 09:02:37;;;;;;;16.20;3.28;;;;;;;9.81;64.71;100219.19;4113137;28;20046;-69
2023/12/10 09:04:40;;;;;;;23.67;3.92;;;;;;;9.90;63.93;100211.53;4110144;28;20063;-67
2023/12/10 09:06:42;;;;;;;21.08;3.53;;;;;;;9.82;63.73;100220.09;4106912;28;20505;-67
2023/12/10 09:08:45;;;;;;;13.38;3.05;;;;;;;9.85;63.96;100227.91;4104632;28;20069;-68
2023/12/10 09:10:48;;;;;;;16.92;3.55;;;;;;;9.87;64.19;100228.78;4107742;28;20046;-67
2023/12/10 09:12:52;;;;;;;28.17;4.35;;;;;;;9.86;64.07;100224.47;4107216;28;20039;-68
2023/12/10 09:14:55;;;;;;;15.55;3.33;;;;;;;9.94;64.66;100225.41;4110669;28;20038;-68
2023/12/10 09:16:58;;;;;;;21.63;4.43;;;;;;;9.89;63.27;100230.56;4095703;28;20043;-68
2023/12/10 09:19:03;;;;;;;20.90;3.70;;;;;;;9.88;64.10;100227.94;4113258;28;20751;-67
2023/12/10 09:21:07;;;;;;;15.80;4.93;;;;;;;9.91;64.24;100220.19;4092201;28;20071;-65
2023/12/10 09:23:10;;;;;;;12.77;2.90;;;;;;;9.91;64.08;100230.56;4109240;28;20039;-64
2023/12/10 09:25:12;;;;;;;22.23;4.97;;;;;;;10.00;63.74;100232.41;4111989;28;20122;-63
2023/12/10 09:27:15;;;;;;;20.45;3.65;;;;;;;9.94;63.63;100236.69;4108449;28;20042;-64
2023/12/10 09:29:18;;;;;;;22.73;4.82;;;;;;;9.90;64.33;100236.59;4111760;28;20047;-64
2023/12/10 09:31:21;;;;;;;16.02;3.47;;;;;;;9.92;64.04;100247.91;4108730;28;20873;-64
2023/12/10 09:33:24;;;;;;;17.17;3.63;;;;;;;9.95;64.56;100241.03;4104586;28;20031;-64
2023/12/10 09:35:29;;;;;;;18.20;3.58;;;;;;;9.98;64.34;100235.00;4106505;28;20047;-66
2023/12/10 09:37:32;;;;;;;18.10;3.80;;;;;;;9.99;63.84;100238.47;4108342;28;20074;-66
2023/12/10 09:39:35;;;;;;;25.77;4.93;;;;;;;10.00;63.94;100235.88;4109352;28;20039;-66